sensor_id;sensor_type;location;lat;lon;timestamp;P1;durP1;ratioP1;P2;durP2;ratioP2
2618;SDS011;1319;52.346;13.096;2023-07-31T00:00:06;5.70;;;3.20;;
2618;SDS011;1319;52.346;13.096;2023-07-31T00:02:31;6.33;;;3.33;;
2618;SDS011;1319;52.346;13.096;2023-07-31T00:04:56;8.90;;;3.30;;
2618;SDS011;1319;52.346;13.096;2023-07-31T00:07:22;5.00;;;2.90;;
2618;SDS011;1319;52.346;13.096;2023-07-31T00:09:47;8.10;;;2.93;;
2618;SDS011;1319;52.346;13.096;2023-07-31T00:12:12;9.03;;;3.33;;
2618;SDS011;1319;52.346;13.096;2023-07-31T00:14:37;4.53;;;3.10;;
2618;SDS011;1319;52.346;13.096;2023-07-31T00:17:02;6.80;;;3.80;;
2618;SDS011;1319;52.346;13.096;2023-07-31T00:19:28;7.03;;;3.87;;
2618;SDS011;1319;52.346;13.096;2023-07-31T00:21:53;7.73;;;3.20;;
2618;SDS011;1319;52.346;13.096;2023-07-31T00:24:18;8.00;;;3.37;;
2618;SDS011;1319;52.346;13.096;2023-07-31T00:26:44;4.63;;;3.07;;
2618;SDS011;1319;52.346;13.096;2023-07-31T00:29:09;9.60;;;3.50;;
2618;SDS011;1319;52.346;13.096;2023-07-31T00:31:34;6.33;;;3.37;;
2618;SDS011;1319;52.346;13.096;2023-07-31T00:33:59;7.30;;;3.10;;
2618;SDS011;1319;52.346;13.096;2023-07-31T00:36:24;7.97;;;3.60;;
2618;SDS011;1319;52.346;13.096;2023-07-31T00:38:50;5.93;;;3.50;;
2618;SDS011;1319;52.346;13.096;2023-07-31T00:41:15;4.33;;;3.93;;
2618;SDS011;1319;52.346;13.096;2023-07-31T00:43:40;8.73;;;3.33;;
2618;SDS011;1319;52.346;13.096;2023-07-31T00:46:06;7.00;;;3.50;;
2618;SDS011;1319;52.346;13.096;2023-07-31T00:48:31;8.00;;;3.50;;
2618;SDS011;1319;52.346;13.096;2023-07-31T00:50:57;7.03;;;3.40;;
2618;SDS011;1319;52.346;13.096;2023-07-31T00:53:22;7.87;;;3.90;;
2618;SDS011;1319;52.346;13.096;2023-07-31T00:55:48;4.50;;;3.43;;
2618;SDS011;1319;52.346;13.096;2023-07-31T00:58:13;8.27;;;3.60;;
2618;SDS011;1319;52.346;13.096;2023-07-31T01:00:38;5.13;;;3.67;;
2618;SDS011;1319;52.346;13.096;2023-07-31T01:03:03;8.17;;;3.80;;
2618;SDS011;1319;52.346;13.096;2023-07-31T01:08:15;7.87;;;3.67;;
2618;SDS011;1319;52.346;13.096;2023-07-31T01:10:49;9.57;;;3.70;;
2618;SDS011;1319;52.346;13.096;2023-07-31T01:13:15;8.23;;;3.70;;
2618;SDS011;1319;52.346;13.096;2023-07-31T01:15:42;7.97;;;3.70;;
2618;SDS011;1319;52.346;13.096;2023-07-31T01:18:07;6.33;;;3.40;;
2618;SDS011;1319;52.346;13.096;2023-07-31T01:20:33;10.23;;;4.30;;
2618;SDS011;1319;52.346;13.096;2023-07-31T01:28:13;8.63;;;4.03;;
2618;SDS011;1319;52.346;13.096;2023-07-31T01:30:43;6.73;;;3.80;;
2618;SDS011;1319;52.346;13.096;2023-07-31T01:33:08;7.03;;;4.23;;
2618;SDS011;1319;52.346;13.096;2023-07-31T01:35:34;8.70;;;3.90;;
2618;SDS011;1319;52.346;13.096;2023-07-31T01:37:59;7.37;;;4.17;;
2618;SDS011;1319;52.346;13.096;2023-07-31T01:40:25;9.63;;;4.10;;
2618;SDS011;1319;52.346;13.096;2023-07-31T01:42:50;5.33;;;3.70;;
2618;SDS011;1319;52.346;13.096;2023-07-31T01:45:15;5.53;;;4.03;;
2618;SDS011;1319;52.346;13.096;2023-07-31T01:47:40;8.93;;;4.00;;
2618;SDS011;1319;52.346;13.096;2023-07-31T01:50:06;8.80;;;4.57;;
2618;SDS011;1319;52.346;13.096;2023-07-31T01:52:31;5.80;;;3.70;;
2618;SDS011;1319;52.346;13.096;2023-07-31T01:54:57;7.87;;;4.20;;
2618;SDS011;1319;52.346;13.096;2023-07-31T01:57:22;6.37;;;3.93;;
2618;SDS011;1319;52.346;13.096;2023-07-31T01:59:47;7.43;;;4.30;;
2618;SDS011;1319;52.346;13.096;2023-07-31T02:02:12;7.93;;;4.57;;
2618;SDS011;1319;52.346;13.096;2023-07-31T02:04:38;5.17;;;4.20;;
2618;SDS011;1319;52.346;13.096;2023-07-31T02:07:04;11.57;;;4.43;;
2618;SDS011;1319;52.346;13.096;2023-07-31T02:09:29;4.80;;;4.10;;
2618;SDS011;1319;52.346;13.096;2023-07-31T02:11:55;6.13;;;4.60;;
2618;SDS011;1319;52.346;13.096;2023-07-31T02:14:20;10.50;;;4.73;;
2618;SDS011;1319;52.346;13.096;2023-07-31T02:16:45;6.50;;;4.57;;
2618;SDS011;1319;52.346;13.096;2023-07-31T02:19:10;9.30;;;4.50;;
2618;SDS011;1319;52.346;13.096;2023-07-31T02:21:36;6.17;;;3.93;;
2618;SDS011;1319;52.346;13.096;2023-07-31T02:24:01;5.70;;;4.20;;
2618;SDS011;1319;52.346;13.096;2023-07-31T02:26:26;12.50;;;4.77;;
2618;SDS011;1319;52.346;13.096;2023-07-31T02:28:51;7.83;;;4.40;;
2618;SDS011;1319;52.346;13.096;2023-07-31T02:31:16;6.30;;;4.30;;
2618;SDS011;1319;52.346;13.096;2023-07-31T02:33:42;10.03;;;5.00;;
2618;SDS011;1319;52.346;13.096;2023-07-31T02:36:07;7.47;;;4.30;;
2618;SDS011;1319;52.346;13.096;2023-07-31T02:38:32;7.40;;;4.90;;
2618;SDS011;1319;52.346;13.096;2023-07-31T02:40:57;8.53;;;4.90;;
2618;SDS011;1319;52.346;13.096;2023-07-31T02:43:23;9.13;;;4.90;;
2618;SDS011;1319;52.346;13.096;2023-07-31T02:45:51;9.00;;;5.00;;
2618;SDS011;1319;52.346;13.096;2023-07-31T02:48:17;11.30;;;4.90;;
2618;SDS011;1319;52.346;13.096;2023-07-31T02:50:42;8.47;;;4.40;;
2618;SDS011;1319;52.346;13.096;2023-07-31T02:53:08;13.67;;;4.83;;
2618;SDS011;1319;52.346;13.096;2023-07-31T02:55:33;7.90;;;4.90;;
2618;SDS011;1319;52.346;13.096;2023-07-31T02:57:58;5.77;;;4.50;;
2618;SDS011;1319;52.346;13.096;2023-07-31T03:00:23;7.00;;;4.60;;
2618;SDS011;1319;52.346;13.096;2023-07-31T03:02:49;6.90;;;4.80;;
2618;SDS011;1319;52.346;13.096;2023-07-31T03:05:14;8.63;;;4.60;;
2618;SDS011;1319;52.346;13.096;2023-07-31T03:07:39;9.83;;;4.90;;
2618;SDS011;1319;52.346;13.096;2023-07-31T03:10:05;7.20;;;4.70;;
2618;SDS011;1319;52.346;13.096;2023-07-31T03:12:30;8.17;;;5.07;;
2618;SDS011;1319;52.346;13.096;2023-07-31T03:14:55;8.63;;;4.60;;
2618;SDS011;1319;52.346;13.096;2023-07-31T03:17:20;8.87;;;4.67;;
2618;SDS011;1319;52.346;13.096;2023-07-31T03:19:46;9.40;;;5.07;;
2618;SDS011;1319;52.346;13.096;2023-07-31T03:22:11;20.33;;;4.60;;
2618;SDS011;1319;52.346;13.096;2023-07-31T03:24:36;8.27;;;4.50;;
2618;SDS011;1319;52.346;13.096;2023-07-31T03:27:01;12.93;;;4.83;;
2618;SDS011;1319;52.346;13.096;2023-07-31T03:29:27;8.70;;;4.47;;
2618;SDS011;1319;52.346;13.096;2023-07-31T03:31:52;8.77;;;4.50;;
2618;SDS011;1319;52.346;13.096;2023-07-31T03:34:17;7.70;;;4.63;;
2618;SDS011;1319;52.346;13.096;2023-07-31T03:36:42;6.60;;;4.87;;
2618;SDS011;1319;52.346;13.096;2023-07-31T03:39:08;7.03;;;5.17;;
2618;SDS011;1319;52.346;13.096;2023-07-31T03:41:33;7.93;;;4.67;;
2618;SDS011;1319;52.346;13.096;2023-07-31T03:43:58;12.43;;;5.30;;
2618;SDS011;1319;52.346;13.096;2023-07-31T03:46:24;15.03;;;5.10;;
2618;SDS011;1319;52.346;13.096;2023-07-31T03:48:49;8.33;;;4.60;;
2618;SDS011;1319;52.346;13.096;2023-07-31T03:51:14;8.37;;;4.67;;
2618;SDS011;1319;52.346;13.096;2023-07-31T03:53:40;8.93;;;5.47;;
2618;SDS011;1319;52.346;13.096;2023-07-31T03:56:05;8.60;;;4.60;;
2618;SDS011;1319;52.346;13.096;2023-07-31T03:58:30;6.03;;;3.97;;
2618;SDS011;1319;52.346;13.096;2023-07-31T04:00:55;14.67;;;5.30;;
2618;SDS011;1319;52.346;13.096;2023-07-31T04:03:20;6.67;;;4.60;;
2618;SDS011;1319;52.346;13.096;2023-07-31T04:05:46;5.00;;;4.50;;
2618;SDS011;1319;52.346;13.096;2023-07-31T04:08:11;7.90;;;4.47;;
2618;SDS011;1319;52.346;13.096;2023-07-31T04:10:36;9.50;;;5.17;;
2618;SDS011;1319;52.346;13.096;2023-07-31T04:13:01;11.47;;;4.80;;
2618;SDS011;1319;52.346;13.096;2023-07-31T04:15:27;6.03;;;4.70;;
2618;SDS011;1319;52.346;13.096;2023-07-31T04:17:52;8.37;;;4.67;;
2618;SDS011;1319;52.346;13.096;2023-07-31T04:20:17;7.80;;;4.80;;
2618;SDS011;1319;52.346;13.096;2023-07-31T04:22:42;8.80;;;5.00;;
2618;SDS011;1319;52.346;13.096;2023-07-31T04:25:08;16.33;;;5.33;;
2618;SDS011;1319;52.346;13.096;2023-07-31T04:27:33;11.27;;;5.10;;
2618;SDS011;1319;52.346;13.096;2023-07-31T04:29:58;8.77;;;5.03;;
2618;SDS011;1319;52.346;13.096;2023-07-31T04:32:23;9.13;;;4.90;;
2618;SDS011;1319;52.346;13.096;2023-07-31T04:34:49;9.93;;;5.10;;
2618;SDS011;1319;52.346;13.096;2023-07-31T04:37:14;8.60;;;4.80;;
2618;SDS011;1319;52.346;13.096;2023-07-31T04:39:39;7.10;;;4.50;;
2618;SDS011;1319;52.346;13.096;2023-07-31T04:42:04;15.50;;;4.77;;
2618;SDS011;1319;52.346;13.096;2023-07-31T04:44:30;7.30;;;3.83;;
2618;SDS011;1319;52.346;13.096;2023-07-31T04:46:55;12.77;;;4.10;;
2618;SDS011;1319;52.346;13.096;2023-07-31T04:49:20;7.83;;;3.97;;
2618;SDS011;1319;52.346;13.096;2023-07-31T04:51:45;10.90;;;4.07;;
2618;SDS011;1319;52.346;13.096;2023-07-31T04:54:11;8.57;;;4.27;;
2618;SDS011;1319;52.346;13.096;2023-07-31T04:56:37;5.77;;;3.10;;
2618;SDS011;1319;52.346;13.096;2023-07-31T04:59:02;8.90;;;4.13;;
2618;SDS011;1319;52.346;13.096;2023-07-31T05:01:28;5.93;;;3.53;;
2618;SDS011;1319;52.346;13.096;2023-07-31T05:03:53;7.70;;;3.53;;
2618;SDS011;1319;52.346;13.096;2023-07-31T05:06:18;9.23;;;3.50;;
2618;SDS011;1319;52.346;13.096;2023-07-31T05:08:45;9.93;;;3.43;;
2618;SDS011;1319;52.346;13.096;2023-07-31T05:11:10;9.17;;;3.63;;
2618;SDS011;1319;52.346;13.096;2023-07-31T05:13:35;5.47;;;3.30;;
2618;SDS011;1319;52.346;13.096;2023-07-31T05:16:01;3.67;;;3.20;;
2618;SDS011;1319;52.346;13.096;2023-07-31T05:18:26;5.53;;;3.63;;
2618;SDS011;1319;52.346;13.096;2023-07-31T05:20:51;8.93;;;3.30;;
2618;SDS011;1319;52.346;13.096;2023-07-31T05:23:17;9.00;;;3.67;;
2618;SDS011;1319;52.346;13.096;2023-07-31T05:25:42;4.77;;;3.33;;
2618;SDS011;1319;52.346;13.096;2023-07-31T05:28:07;12.20;;;3.30;;
2618;SDS011;1319;52.346;13.096;2023-07-31T05:30:33;6.27;;;3.20;;
2618;SDS011;1319;52.346;13.096;2023-07-31T05:32:58;8.27;;;3.00;;
2618;SDS011;1319;52.346;13.096;2023-07-31T05:35:23;3.53;;;2.73;;
2618;SDS011;1319;52.346;13.096;2023-07-31T05:37:48;7.27;;;3.03;;
2618;SDS011;1319;52.346;13.096;2023-07-31T05:40:14;6.43;;;3.17;;
2618;SDS011;1319;52.346;13.096;2023-07-31T05:42:39;7.53;;;3.33;;
2618;SDS011;1319;52.346;13.096;2023-07-31T05:45:05;4.83;;;2.70;;
2618;SDS011;1319;52.346;13.096;2023-07-31T05:47:30;6.77;;;3.10;;
2618;SDS011;1319;52.346;13.096;2023-07-31T05:49:56;5.40;;;3.17;;
2618;SDS011;1319;52.346;13.096;2023-07-31T05:52:21;5.00;;;2.70;;
2618;SDS011;1319;52.346;13.096;2023-07-31T05:54:46;10.93;;;2.80;;
2618;SDS011;1319;52.346;13.096;2023-07-31T05:57:11;5.03;;;3.13;;
2618;SDS011;1319;52.346;13.096;2023-07-31T05:59:37;3.57;;;2.60;;
2618;SDS011;1319;52.346;13.096;2023-07-31T06:02:02;5.37;;;2.77;;
2618;SDS011;1319;52.346;13.096;2023-07-31T06:04:27;5.00;;;2.50;;
2618;SDS011;1319;52.346;13.096;2023-07-31T06:06:53;4.03;;;2.63;;
2618;SDS011;1319;52.346;13.096;2023-07-31T06:09:18;3.43;;;2.93;;
2618;SDS011;1319;52.346;13.096;2023-07-31T06:11:43;5.90;;;2.87;;
2618;SDS011;1319;52.346;13.096;2023-07-31T06:14:08;4.67;;;2.73;;
2618;SDS011;1319;52.346;13.096;2023-07-31T06:16:34;4.50;;;2.50;;
2618;SDS011;1319;52.346;13.096;2023-07-31T06:18:59;5.57;;;2.87;;
2618;SDS011;1319;52.346;13.096;2023-07-31T06:21:24;6.13;;;2.50;;
2618;SDS011;1319;52.346;13.096;2023-07-31T06:23:50;7.63;;;3.13;;
2618;SDS011;1319;52.346;13.096;2023-07-31T06:26:15;6.30;;;2.43;;
2618;SDS011;1319;52.346;13.096;2023-07-31T06:28:40;7.67;;;3.33;;
2618;SDS011;1319;52.346;13.096;2023-07-31T06:31:05;8.57;;;2.87;;
2618;SDS011;1319;52.346;13.096;2023-07-31T06:33:30;4.73;;;2.40;;
2618;SDS011;1319;52.346;13.096;2023-07-31T06:35:56;8.27;;;2.90;;
2618;SDS011;1319;52.346;13.096;2023-07-31T06:38:25;5.57;;;2.90;;
2618;SDS011;1319;52.346;13.096;2023-07-31T06:40:51;6.87;;;2.73;;
2618;SDS011;1319;52.346;13.096;2023-07-31T06:43:16;8.07;;;2.80;;
2618;SDS011;1319;52.346;13.096;2023-07-31T06:45:41;4.90;;;2.57;;
2618;SDS011;1319;52.346;13.096;2023-07-31T06:48:07;8.23;;;2.60;;
2618;SDS011;1319;52.346;13.096;2023-07-31T06:50:32;3.77;;;2.50;;
2618;SDS011;1319;52.346;13.096;2023-07-31T06:52:57;3.80;;;2.60;;
2618;SDS011;1319;52.346;13.096;2023-07-31T06:55:22;7.70;;;3.00;;
2618;SDS011;1319;52.346;13.096;2023-07-31T06:57:48;2.90;;;2.60;;
2618;SDS011;1319;52.346;13.096;2023-07-31T07:00:13;3.80;;;2.80;;
2618;SDS011;1319;52.346;13.096;2023-07-31T07:02:39;10.00;;;3.30;;
2618;SDS011;1319;52.346;13.096;2023-07-31T07:05:04;4.83;;;2.60;;
2618;SDS011;1319;52.346;13.096;2023-07-31T07:07:29;5.83;;;3.00;;
2618;SDS011;1319;52.346;13.096;2023-07-31T07:09:55;5.73;;;2.97;;
2618;SDS011;1319;52.346;13.096;2023-07-31T07:12:20;5.73;;;3.20;;
2618;SDS011;1319;52.346;13.096;2023-07-31T07:14:45;4.53;;;2.90;;
2618;SDS011;1319;52.346;13.096;2023-07-31T07:17:13;5.57;;;3.10;;
2618;SDS011;1319;52.346;13.096;2023-07-31T07:19:40;3.60;;;2.67;;
2618;SDS011;1319;52.346;13.096;2023-07-31T07:22:05;6.23;;;3.07;;
2618;SDS011;1319;52.346;13.096;2023-07-31T07:24:30;6.37;;;2.83;;
2618;SDS011;1319;52.346;13.096;2023-07-31T07:26:56;6.30;;;3.00;;
2618;SDS011;1319;52.346;13.096;2023-07-31T07:29:21;5.73;;;3.13;;
2618;SDS011;1319;52.346;13.096;2023-07-31T07:31:46;3.47;;;3.13;;
2618;SDS011;1319;52.346;13.096;2023-07-31T07:34:11;4.30;;;3.20;;
2618;SDS011;1319;52.346;13.096;2023-07-31T07:36:37;4.67;;;3.20;;
2618;SDS011;1319;52.346;13.096;2023-07-31T07:39:02;8.50;;;3.80;;
2618;SDS011;1319;52.346;13.096;2023-07-31T07:41:27;6.30;;;3.23;;
2618;SDS011;1319;52.346;13.096;2023-07-31T07:43:53;3.73;;;3.23;;
2618;SDS011;1319;52.346;13.096;2023-07-31T07:46:18;6.73;;;3.27;;
2618;SDS011;1319;52.346;13.096;2023-07-31T07:48:43;4.03;;;3.30;;
2618;SDS011;1319;52.346;13.096;2023-07-31T07:51:08;5.60;;;3.40;;
2618;SDS011;1319;52.346;13.096;2023-07-31T07:53:34;4.17;;;3.33;;
2618;SDS011;1319;52.346;13.096;2023-07-31T07:55:59;4.47;;;3.13;;
2618;SDS011;1319;52.346;13.096;2023-07-31T07:58:24;4.90;;;3.80;;
2618;SDS011;1319;52.346;13.096;2023-07-31T08:00:50;5.20;;;3.27;;
2618;SDS011;1319;52.346;13.096;2023-07-31T08:03:15;8.03;;;3.40;;
2618;SDS011;1319;52.346;13.096;2023-07-31T08:05:42;5.80;;;3.50;;
2618;SDS011;1319;52.346;13.096;2023-07-31T08:08:07;3.97;;;3.10;;
2618;SDS011;1319;52.346;13.096;2023-07-31T08:10:32;8.23;;;3.50;;
2618;SDS011;1319;52.346;13.096;2023-07-31T08:12:57;4.63;;;2.90;;
2618;SDS011;1319;52.346;13.096;2023-07-31T08:15:23;5.37;;;2.87;;
2618;SDS011;1319;52.346;13.096;2023-07-31T08:17:48;3.13;;;2.80;;
2618;SDS011;1319;52.346;13.096;2023-07-31T08:20:13;4.77;;;2.73;;
2618;SDS011;1319;52.346;13.096;2023-07-31T08:22:39;3.50;;;2.70;;
2618;SDS011;1319;52.346;13.096;2023-07-31T08:25:05;4.53;;;2.70;;
2618;SDS011;1319;52.346;13.096;2023-07-31T08:27:31;4.07;;;2.80;;
2618;SDS011;1319;52.346;13.096;2023-07-31T08:29:57;3.70;;;2.40;;
2618;SDS011;1319;52.346;13.096;2023-07-31T08:32:22;3.73;;;2.77;;
2618;SDS011;1319;52.346;13.096;2023-07-31T08:34:47;2.70;;;2.40;;
2618;SDS011;1319;52.346;13.096;2023-07-31T08:37:13;3.23;;;2.03;;
2618;SDS011;1319;52.346;13.096;2023-07-31T08:39:38;3.13;;;2.40;;
2618;SDS011;1319;52.346;13.096;2023-07-31T08:42:07;2.03;;;1.90;;
2618;SDS011;1319;52.346;13.096;2023-07-31T08:44:32;2.07;;;1.50;;
2618;SDS011;1319;52.346;13.096;2023-07-31T08:46:58;5.10;;;2.47;;
2618;SDS011;1319;52.346;13.096;2023-07-31T08:49:24;2.83;;;1.70;;
2618;SDS011;1319;52.346;13.096;2023-07-31T08:51:49;1.83;;;1.73;;
2618;SDS011;1319;52.346;13.096;2023-07-31T08:54:15;2.50;;;1.53;;
2618;SDS011;1319;52.346;13.096;2023-07-31T08:56:40;1.40;;;1.30;;
2618;SDS011;1319;52.346;13.096;2023-07-31T08:59:06;1.77;;;1.23;;
2618;SDS011;1319;52.346;13.096;2023-07-31T09:01:32;1.50;;;1.30;;
2618;SDS011;1319;52.346;13.096;2023-07-31T09:04:01;1.10;;;1.10;;
2618;SDS011;1319;52.346;13.096;2023-07-31T09:06:26;1.30;;;1.30;;
2618;SDS011;1319;52.346;13.096;2023-07-31T09:08:53;1.27;;;1.20;;
2618;SDS011;1319;52.346;13.096;2023-07-31T09:11:18;2.77;;;1.33;;
2618;SDS011;1319;52.346;13.096;2023-07-31T09:13:46;1.80;;;1.37;;
2618;SDS011;1319;52.346;13.096;2023-07-31T09:16:11;1.37;;;1.27;;
2618;SDS011;1319;52.346;13.096;2023-07-31T09:18:55;1.70;;;1.30;;
2618;SDS011;1319;52.346;13.096;2023-07-31T09:21:21;2.93;;;1.87;;
2618;SDS011;1319;52.346;13.096;2023-07-31T09:23:47;2.40;;;2.20;;
2618;SDS011;1319;52.346;13.096;2023-07-31T09:26:35;3.33;;;2.10;;
2618;SDS011;1319;52.346;13.096;2023-07-31T09:29:01;5.70;;;2.83;;
2618;SDS011;1319;52.346;13.096;2023-07-31T09:31:41;3.60;;;2.87;;
2618;SDS011;1319;52.346;13.096;2023-07-31T09:34:06;4.17;;;2.90;;
2618;SDS011;1319;52.346;13.096;2023-07-31T09:36:32;3.43;;;3.13;;
2618;SDS011;1319;52.346;13.096;2023-07-31T09:39:03;3.93;;;3.13;;
2618;SDS011;1319;52.346;13.096;2023-07-31T09:41:29;7.67;;;3.33;;
2618;SDS011;1319;52.346;13.096;2023-07-31T09:43:54;5.60;;;3.60;;
2618;SDS011;1319;52.346;13.096;2023-07-31T09:46:20;4.10;;;3.23;;
2618;SDS011;1319;52.346;13.096;2023-07-31T09:48:45;8.73;;;3.80;;
2618;SDS011;1319;52.346;13.096;2023-07-31T09:51:10;4.27;;;3.40;;
2618;SDS011;1319;52.346;13.096;2023-07-31T09:53:36;4.83;;;3.77;;
2618;SDS011;1319;52.346;13.096;2023-07-31T09:56:01;6.97;;;3.53;;
2618;SDS011;1319;52.346;13.096;2023-07-31T09:58:27;9.13;;;3.60;;
2618;SDS011;1319;52.346;13.096;2023-07-31T10:00:53;6.27;;;3.73;;
2618;SDS011;1319;52.346;13.096;2023-07-31T10:03:19;8.23;;;4.07;;
2618;SDS011;1319;52.346;13.096;2023-07-31T10:05:53;9.40;;;4.17;;
2618;SDS011;1319;52.346;13.096;2023-07-31T10:08:21;8.77;;;4.50;;
2618;SDS011;1319;52.346;13.096;2023-07-31T10:10:48;7.17;;;3.90;;
2618;SDS011;1319;52.346;13.096;2023-07-31T10:13:13;5.97;;;3.73;;
2618;SDS011;1319;52.346;13.096;2023-07-31T10:15:39;6.80;;;3.60;;
2618;SDS011;1319;52.346;13.096;2023-07-31T10:18:06;6.30;;;3.77;;
2618;SDS011;1319;52.346;13.096;2023-07-31T10:20:32;6.37;;;3.60;;
2618;SDS011;1319;52.346;13.096;2023-07-31T10:22:57;8.60;;;4.27;;
2618;SDS011;1319;52.346;13.096;2023-07-31T10:25:23;6.33;;;3.63;;
2618;SDS011;1319;52.346;13.096;2023-07-31T10:27:48;6.57;;;3.63;;
2618;SDS011;1319;52.346;13.096;2023-07-31T10:30:14;6.10;;;3.50;;
2618;SDS011;1319;52.346;13.096;2023-07-31T10:32:40;9.18;;;3.20;;
2618;SDS011;1319;52.346;13.096;2023-07-31T10:35:06;4.30;;;3.15;;
2618;SDS011;1319;52.346;13.096;2023-07-31T10:37:39;11.73;;;3.03;;
2618;SDS011;1319;52.346;13.096;2023-07-31T10:42:34;5.47;;;2.90;;
2618;SDS011;1319;52.346;13.096;2023-07-31T10:45:00;5.03;;;3.10;;
2618;SDS011;1319;52.346;13.096;2023-07-31T10:47:26;5.00;;;3.13;;
2618;SDS011;1319;52.346;13.096;2023-07-31T10:49:51;6.50;;;3.00;;
2618;SDS011;1319;52.346;13.096;2023-07-31T10:52:20;4.18;;;2.78;;
2618;SDS011;1319;52.346;13.096;2023-07-31T10:54:48;2.60;;;2.40;;
2618;SDS011;1319;52.346;13.096;2023-07-31T10:57:22;3.00;;;2.50;;
2618;SDS011;1319;52.346;13.096;2023-07-31T10:59:48;6.13;;;3.03;;
2618;SDS011;1319;52.346;13.096;2023-07-31T11:02:48;6.95;;;3.15;;
2618;SDS011;1319;52.346;13.096;2023-07-31T11:05:05;4.80;;;2.65;;
2618;SDS011;1319;52.346;13.096;2023-07-31T11:07:46;5.57;;;2.80;;
2618;SDS011;1319;52.346;13.096;2023-07-31T11:10:11;4.93;;;2.90;;
2618;SDS011;1319;52.346;13.096;2023-07-31T11:12:36;5.20;;;3.10;;
2618;SDS011;1319;52.346;13.096;2023-07-31T11:15:02;6.95;;;2.80;;
2618;SDS011;1319;52.346;13.096;2023-07-31T11:17:28;3.28;;;2.97;;
2618;SDS011;1319;52.346;13.096;2023-07-31T11:19:53;7.35;;;2.97;;
2618;SDS011;1319;52.346;13.096;2023-07-31T11:22:18;6.53;;;3.03;;
2618;SDS011;1319;52.346;13.096;2023-07-31T11:24:44;4.13;;;2.75;;
2618;SDS011;1319;52.346;13.096;2023-07-31T11:27:09;5.75;;;2.85;;
2618;SDS011;1319;52.346;13.096;2023-07-31T11:29:34;5.07;;;2.85;;
2618;SDS011;1319;52.346;13.096;2023-07-31T11:31:59;3.42;;;2.88;;
2618;SDS011;1319;52.346;13.096;2023-07-31T11:34:24;5.03;;;2.67;;
2618;SDS011;1319;52.346;13.096;2023-07-31T11:36:53;6.63;;;3.30;;
2618;SDS011;1319;52.346;13.096;2023-07-31T11:39:19;6.30;;;3.13;;
2618;SDS011;1319;52.346;13.096;2023-07-31T11:41:45;2.70;;;2.50;;
2618;SDS011;1319;52.346;13.096;2023-07-31T11:44:10;7.13;;;2.70;;
2618;SDS011;1319;52.346;13.096;2023-07-31T11:46:35;3.65;;;2.88;;
2618;SDS011;1319;52.346;13.096;2023-07-31T11:49:01;4.45;;;2.38;;
2618;SDS011;1319;52.346;13.096;2023-07-31T11:51:26;4.85;;;2.83;;
2618;SDS011;1319;52.346;13.096;2023-07-31T11:53:53;4.32;;;2.70;;
2618;SDS011;1319;52.346;13.096;2023-07-31T11:56:20;5.68;;;2.50;;
2618;SDS011;1319;52.346;13.096;2023-07-31T11:58:49;5.32;;;2.45;;
2618;SDS011;1319;52.346;13.096;2023-07-31T12:01:15;6.30;;;2.63;;
2618;SDS011;1319;52.346;13.096;2023-07-31T12:03:40;4.63;;;2.53;;
2618;SDS011;1319;52.346;13.096;2023-07-31T12:06:08;3.10;;;2.78;;
2618;SDS011;1319;52.346;13.096;2023-07-31T12:08:33;5.13;;;2.80;;
2618;SDS011;1319;52.346;13.096;2023-07-31T12:11:05;8.00;;;2.75;;
2618;SDS011;1319;52.346;13.096;2023-07-31T12:13:31;5.47;;;2.88;;
2618;SDS011;1319;52.346;13.096;2023-07-31T12:15:58;4.25;;;2.42;;
2618;SDS011;1319;52.346;13.096;2023-07-31T12:18:24;4.68;;;2.58;;
2618;SDS011;1319;52.346;13.096;2023-07-31T12:20:54;2.63;;;2.42;;
2618;SDS011;1319;52.346;13.096;2023-07-31T12:23:20;2.75;;;2.17;;
2618;SDS011;1319;52.346;13.096;2023-07-31T12:28:26;4.25;;;2.25;;
2618;SDS011;1319;52.346;13.096;2023-07-31T12:30:51;2.00;;;1.80;;
2618;SDS011;1319;52.346;13.096;2023-07-31T12:33:16;3.28;;;2.08;;
2618;SDS011;1319;52.346;13.096;2023-07-31T12:35:44;4.25;;;2.38;;
2618;SDS011;1319;52.346;13.096;2023-07-31T12:38:09;3.80;;;1.90;;
2618;SDS011;1319;52.346;13.096;2023-07-31T12:40:38;2.25;;;1.80;;
2618;SDS011;1319;52.346;13.096;2023-07-31T12:43:04;7.82;;;2.30;;
2618;SDS011;1319;52.346;13.096;2023-07-31T12:45:30;2.38;;;1.95;;
2618;SDS011;1319;52.346;13.096;2023-07-31T12:47:56;2.30;;;2.10;;
2618;SDS011;1319;52.346;13.096;2023-07-31T12:50:22;3.85;;;1.95;;
2618;SDS011;1319;52.346;13.096;2023-07-31T12:52:48;4.93;;;2.40;;
2618;SDS011;1319;52.346;13.096;2023-07-31T12:55:14;4.72;;;2.70;;
2618;SDS011;1319;52.346;13.096;2023-07-31T12:57:40;3.35;;;2.40;;
2618;SDS011;1319;52.346;13.096;2023-07-31T13:00:06;5.30;;;2.10;;
2618;SDS011;1319;52.346;13.096;2023-07-31T13:02:32;3.88;;;2.63;;
2618;SDS011;1319;52.346;13.096;2023-07-31T13:04:57;6.63;;;2.47;;
2618;SDS011;1319;52.346;13.096;2023-07-31T13:07:22;6.93;;;2.78;;
2618;SDS011;1319;52.346;13.096;2023-07-31T13:09:48;4.53;;;2.90;;
2618;SDS011;1319;52.346;13.096;2023-07-31T13:12:13;6.60;;;2.70;;
2618;SDS011;1319;52.346;13.096;2023-07-31T13:14:39;4.50;;;2.80;;
2618;SDS011;1319;52.346;13.096;2023-07-31T13:17:04;4.50;;;2.72;;
2618;SDS011;1319;52.346;13.096;2023-07-31T13:19:29;3.85;;;2.60;;
2618;SDS011;1319;52.346;13.096;2023-07-31T13:21:55;6.93;;;2.97;;
2618;SDS011;1319;52.346;13.096;2023-07-31T13:24:20;6.32;;;3.13;;
2618;SDS011;1319;52.346;13.096;2023-07-31T13:26:45;6.40;;;2.70;;
2618;SDS011;1319;52.346;13.096;2023-07-31T13:29:11;5.28;;;2.78;;
2618;SDS011;1319;52.346;13.096;2023-07-31T13:31:36;3.50;;;2.53;;
2618;SDS011;1319;52.346;13.096;2023-07-31T13:34:01;2.80;;;2.45;;
2618;SDS011;1319;52.346;13.096;2023-07-31T13:36:26;4.15;;;2.85;;
2618;SDS011;1319;52.346;13.096;2023-07-31T13:38:52;5.13;;;2.15;;
2618;SDS011;1319;52.346;13.096;2023-07-31T13:41:17;4.45;;;2.60;;
2618;SDS011;1319;52.346;13.096;2023-07-31T13:43:42;3.78;;;2.45;;
2618;SDS011;1319;52.346;13.096;2023-07-31T13:46:07;5.75;;;2.75;;
2618;SDS011;1319;52.346;13.096;2023-07-31T13:48:35;4.43;;;2.80;;
2618;SDS011;1319;52.346;13.096;2023-07-31T13:51:01;4.72;;;2.70;;
2618;SDS011;1319;52.346;13.096;2023-07-31T13:53:26;3.80;;;2.70;;
2618;SDS011;1319;52.346;13.096;2023-07-31T13:55:51;5.15;;;2.78;;
2618;SDS011;1319;52.346;13.096;2023-07-31T13:58:17;8.23;;;2.72;;
2618;SDS011;1319;52.346;13.096;2023-07-31T14:00:42;2.95;;;2.47;;
2618;SDS011;1319;52.346;13.096;2023-07-31T14:03:07;4.45;;;2.70;;
2618;SDS011;1319;52.346;13.096;2023-07-31T14:05:33;8.13;;;2.63;;
2618;SDS011;1319;52.346;13.096;2023-07-31T14:07:58;3.22;;;2.70;;
2618;SDS011;1319;52.346;13.096;2023-07-31T14:10:23;3.38;;;2.50;;
2618;SDS011;1319;52.346;13.096;2023-07-31T14:12:48;5.03;;;2.83;;
2618;SDS011;1319;52.346;13.096;2023-07-31T14:15:13;5.30;;;2.65;;
2618;SDS011;1319;52.346;13.096;2023-07-31T14:17:39;2.55;;;2.35;;
2618;SDS011;1319;52.346;13.096;2023-07-31T14:20:04;3.85;;;2.38;;
2618;SDS011;1319;52.346;13.096;2023-07-31T14:22:30;5.03;;;2.70;;
2618;SDS011;1319;52.346;13.096;2023-07-31T14:24:55;6.00;;;2.60;;
2618;SDS011;1319;52.346;13.096;2023-07-31T14:27:21;6.40;;;2.70;;
2618;SDS011;1319;52.346;13.096;2023-07-31T14:29:46;3.38;;;2.47;;
2618;SDS011;1319;52.346;13.096;2023-07-31T14:32:11;4.25;;;2.75;;
2618;SDS011;1319;52.346;13.096;2023-07-31T14:34:36;2.70;;;2.50;;
2618;SDS011;1319;52.346;13.096;2023-07-31T14:37:02;6.85;;;2.88;;
2618;SDS011;1319;52.346;13.096;2023-07-31T14:39:27;4.85;;;2.88;;
2618;SDS011;1319;52.346;13.096;2023-07-31T14:41:52;4.15;;;2.67;;
2618;SDS011;1319;52.346;13.096;2023-07-31T14:44:18;3.75;;;2.50;;
2618;SDS011;1319;52.346;13.096;2023-07-31T14:46:43;8.00;;;2.90;;
2618;SDS011;1319;52.346;13.096;2023-07-31T14:49:08;3.72;;;2.88;;
2618;SDS011;1319;52.346;13.096;2023-07-31T14:51:33;5.40;;;2.92;;
2618;SDS011;1319;52.346;13.096;2023-07-31T14:53:58;3.75;;;2.47;;
2618;SDS011;1319;52.346;13.096;2023-07-31T14:56:24;3.38;;;2.70;;
2618;SDS011;1319;52.346;13.096;2023-07-31T14:58:50;4.65;;;2.78;;
2618;SDS011;1319;52.346;13.096;2023-07-31T15:01:15;6.20;;;2.90;;
2618;SDS011;1319;52.346;13.096;2023-07-31T15:03:40;4.82;;;2.80;;